Time;durP1;ratioP1;P1;durP2;ratioP2;P2;SDS_P1;SDS_P2;PMS_P1;PMS_P2;Temp;Humidity;BMP_temperature;BMP_pressure;BME280_temperature;BME280_humidity;BME280_pressure;Samples;Min_cycle;Max_cycle;Signal;HPM_P1;HPM_P2
2022/06/08 00:00:25;;;;;;;11.22;5.35;;;;;;;22.44;50.37;153296.14;1666411;83;21068;-58
2022/06/08 00:03:00;;;;;;;11.40;5.70;;;;;;;22.56;50.11;153326.27;1711492;83;21084;-58
2022/06/08 00:05:28;;;;;;;9.05;5.35;;;;;;;22.60;49.63;153338.00;1710433;83;21497;-58
2022/06/08 00:07:55;;;;;;;12.98;5.47;;;;;;;22.61;49.99;153340.63;1711363;83;21494;-58
2022/06/08 00:10:22;;;;;;;9.98;5.95;;;;;;;22.70;49.59;153361.58;1711851;83;21102;-58
2022/06/08 00:12:51;;;;;;;12.33;5.95;;;;;;;22.67;49.12;153355.02;1711554;83;21472;-58
2022/06/08 00:15:18;;;;;;;13.50;5.97;;;;;;;22.60;49.06;153338.00;1711952;83;21068;-58
2022/06/08 00:17:45;;;;;;;10.13;5.35;;;;;;;22.64;48.57;153345.84;1711594;83;21006;-58
2022/06/08 00:20:13;;;;;;;7.65;4.95;;;;;;;22.64;48.01;153347.19;1711366;83;21017;-64
2022/06/08 00:22:40;;;;;;;11.20;5.28;;;;;;;22.56;47.91;153327.55;1711407;83;21506;-64
2022/06/08 00:25:08;;;;;;;11.45;5.78;;;;;;;22.55;48.13;153324.94;1711335;83;20996;-58
2022/06/08 00:27:36;;;;;;;11.25;5.20;;;;;;;22.55;48.02;153324.94;1711237;83;20994;-63
2022/06/08 00:30:06;;;;;;;12.95;5.65;;;;;;;22.45;47.94;153300.03;1711519;83;21041;-64
2022/06/08 00:32:34;;;;;;;13.15;5.10;;;;;;;22.33;48.24;153269.95;1711584;83;21049;-63
2022/06/08 00:35:01;;;;;;;11.33;5.40;;;;;;;22.26;48.37;153250.33;1711145;83;21264;-57
2022/06/08 00:37:28;;;;;;;8.83;4.30;;;;;;;22.12;48.69;153216.34;1711159;83;21057;-58
2022/06/08 00:39:56;;;;;;;8.68;5.50;;;;;;;22.06;49.19;153199.34;1711469;83;21053;-58
2022/06/08 00:42:23;;;;;;;9.50;5.60;;;;;;;22.08;49.59;153204.56;1711421;83;21084;-63
2022/06/08 00:45:06;;;;;;;9.03;5.08;;;;;;;21.96;49.66;153175.78;1711342;83;21056;-63
2022/06/08 00:47:41;;;;;;;11.85;5.28;;;;;;;21.82;50.16;153139.19;1710833;83;21202;-58
2022/06/08 00:50:18;;;;;;;12.85;6.85;;;;;;;21.80;50.43;153133.97;1707327;83;21036;-63
2022/06/08 00:52:45;;;;;;;15.10;6.83;;;;;;;21.68;50.79;153105.19;1711550;83;21029;-64
2022/06/08 00:55:15;;;;;;;15.40;7.33;;;;;;;21.53;51.82;153067.22;1711617;83;21037;-64
2022/06/08 00:57:50;;;;;;;10.70;6.72;;;;;;;21.47;52.50;153052.83;1711382;83;21045;-64
2022/06/08 01:00:25;;;;;;;13.20;6.83;;;;;;;21.39;52.88;153031.94;1711219;83;21293;-64
2022/06/08 01:02:53;;;;;;;21.73;7.75;;;;;;;21.28;53.26;153004.50;1711503;83;21399;-64
2022/06/08 01:05:40;;;;;;;12.20;6.17;;;;;;;21.32;54.05;153013.61;1711579;83;21005;-64
2022/06/08 01:08:45;;;;;;;10.32;5.92;;;;;;;21.34;54.14;153018.88;1711280;83;21072;-63
2022/06/08 01:11:32;;;;;;;10.95;6.50;;;;;;;21.27;54.33;153001.88;1711375;83;20953;-63
2022/06/08 01:14:05;;;;;;;10.32;6.30;;;;;;;21.35;54.33;153021.50;1711444;83;20973;-63
2022/06/08 01:16:32;;;;;;;9.88;6.10;;;;;;;21.41;53.26;153037.16;1711579;83;21696;-64
2022/06/08 01:19:03;;;;;;;11.75;5.40;;;;;;;21.34;52.91;153018.88;1711338;83;21049;-64
2022/06/08 01:21:36;;;;;;;13.53;5.22;;;;;;;21.30;52.39;153009.72;1689596;83;20992;-64
2022/06/08 01:24:10;;;;;;;11.55;6.30;;;;;;;21.27;51.94;153000.55;1710201;83;21032;-64
2022/06/08 01:27:00;;;;;;;9.30;5.28;;;;;;;21.21;52.62;152986.16;1711705;83;21859;-63
2022/06/08 01:29:37;;;;;;;8.13;5.20;;;;;;;21.17;53.27;152977.05;1711426;83;21047;-64
2022/06/08 01:32:35;;;;;;;8.68;5.67;;;;;;;21.25;55.16;152995.33;1711538;83;21013;-64
2022/06/08 01:35:26;;;;;;;16.12;6.00;;;;;;;21.28;56.06;153003.16;1711649;83;21065;-63
2022/06/08 01:38:14;;;;;;;12.60;5.78;;;;;;;21.40;55.73;153034.55;1711458;83;21098;-64
2022/06/08 01:41:13;;;;;;;8.23;5.67;;;;;;;21.50;56.12;153058.06;1711488;83;21223;-63
2022/06/08 01:43:54;;;;;;;9.78;5.42;;;;;;;21.40;58.72;153033.22;1711310;83;20922;-63
2022/06/08 01:46:27;;;;;;;9.43;5.30;;;;;;;21.35;60.00;153021.50;1711513;83;21493;-63
2022/06/08 01:49:19;;;;;;;10.27;6.07;;;;;;;21.37;62.37;153026.72;1711194;83;21544;-64
2022/06/08 01:52:10;;;;;;;11.95;6.10;;;;;;;21.28;64.10;153003.16;1711426;83;21005;-64
2022/06/08 01:55:09;;;;;;;9.88;6.53;;;;;;;21.28;64.58;153004.50;1711455;83;21151;-63
2022/06/08 01:58:13;;;;;;;9.28;6.40;;;;;;;21.25;65.90;152996.66;1711408;83;21080;-63
2022/06/08 02:00:44;;;;;;;12.47;6.40;;;;;;;21.11;65.24;152961.38;1692875;83;21063;-63
2022/06/08 02:03:28;;;;;;;10.08;6.67;;;;;;;21.01;65.73;152935.20;1711479;83;21009;-63
2022/06/08 02:06:16;;;;;;;11.70;6.75;;;;;;;21.04;66.30;152943.05;1711405;83;21080;-63
2022/06/08 02:08:49;;;;;;;12.75;6.47;;;;;;;21.04;66.30;152944.38;1711338;83;21092;-64
2022/06/08 02:11:42;;;;;;;12.37;7.42;;;;;;;20.95;66.39;152919.53;1711630;83;20858;-64
2022/06/08 02:14:17;;;;;;;13.65;6.78;;;;;;;20.91;66.41;152909.09;1711121;83;21107;-65
2022/06/08 02:17:05;;;;;;;13.80;6.15;;;;;;;20.85;66.84;152895.98;1711628;83;20993;-65
2022/06/08 02:19:46;;;;;;;7.53;4.58;;;;;;;20.88;67.50;152902.53;1711197;83;21076;-65
2022/06/08 02:22:20;;;;;;;6.78;4.55;;;;;;;20.98;67.21;152928.66;1711454;83;21284;-66
2022/06/08 02:24:55;;;;;;;13.45;5.97;;;;;;;21.03;66.27;152940.44;1711516;83;21041;-65
2022/06/08 02:27:38;;;;;;;10.08;6.03;;;;;;;21.03;66.81;152940.44;1707488;83;21017;-64
2022/06/08 02:30:13;;;;;;;10.88;6.67;;;;;;;21.07;66.87;152950.88;1711513;83;21466;-65
2022/06/08 02:35:38;;;;;;;13.68;6.00;;;;;;;20.86;66.96;152898.59;1711635;83;21243;-64
2022/06/08 02:38:13;;;;;;;11.28;5.25;;;;;;;20.79;67.30;152880.28;1711266;83;21521;-65
2022/06/08 02:40:48;;;;;;;6.12;4.08;;;;;;;20.73;66.44;152865.89;1711646;83;21021;-64
2022/06/08 02:43:29;;;;;;;10.03;4.72;;;;;;;20.69;66.11;152854.16;1711534;83;21049;-64
2022/06/08 02:46:39;;;;;;;8.58;5.10;;;;;;;20.70;67.45;152856.78;1711750;83;21076;-64
2022/06/08 02:49:07;;;;;;;9.10;5.67;;;;;;;20.77;68.12;152875.05;1711365;83;21250;-65
2022/06/08 02:51:35;;;;;;;9.73;5.62;;;;;;;20.76;68.22;152873.72;1711376;83;21006;-64
2022/06/08 02:54:07;;;;;;;12.28;5.58;;;;;;;20.79;68.67;152880.28;1711407;83;21072;-64
2022/06/08 02:57:34;;;;;;;9.30;5.87;;;;;;;20.84;68.34;152893.38;1711339;83;21088;-64
2022/06/08 03:00:13;;;;;;;7.17;5.15;;;;;;;20.82;67.79;152888.16;1711518;83;22195;-64
2022/06/08 03:03:09;;;;;;;8.75;5.47;;;;;;;20.82;67.26;152888.16;1710930;83;21264;-63
2022/06/08 03:05:50;;;;;;;10.25;5.08;;;;;;;20.89;67.40;152906.48;1711302;83;21422;-64
2022/06/08 03:08:29;;;;;;;12.10;5.20;;;;;;;20.95;67.06;152919.53;1711403;83;20993;-62
2022/06/08 03:11:00;;;;;;;9.45;5.20;;;;;;;20.94;66.87;152918.20;1711665;83;21061;-63
2022/06/08 03:13:30;;;;;;;9.50;5.12;;;;;;;20.99;66.67;152929.98;1711384;83;21336;-63
2022/06/08 03:16:01;;;;;;;7.80;5.05;;;;;;;21.04;66.24;152943.05;1711650;83;21215;-63
2022/06/08 03:18:29;;;;;;;7.22;5.00;;;;;;;21.11;66.19;152961.38;1711435;83;21092;-63
2022/06/08 03:20:58;;;;;;;8.30;4.20;;;;;;;21.20;65.72;152982.27;1711358;83;21061;-63
2022/06/08 03:23:26;;;;;;;7.17;4.40;;;;;;;21.30;64.32;153009.72;1711531;83;21565;-62
2022/06/08 03:25:55;;;;;;;8.40;4.08;;;;;;;21.35;63.89;153020.16;1711447;83;21048;-63
2022/06/08 03:28:22;;;;;;;7.17;3.72;;;;;;;21.48;62.41;153054.17;1711887;83;21250;-63
2022/06/08 03:30:51;;;;;;;8.65;4.20;;;;;;;21.60;61.58;153084.23;1711419;83;21053;-63
2022/06/08 03:33:20;;;;;;;11.73;4.22;;;;;;;21.75;60.93;153123.47;1711516;83;21029;-62
2022/06/08 03:35:48;;;;;;;8.83;4.17;;;;;;;21.86;60.71;153150.94;1711494;83;21088;-63
2022/06/08 03:38:16;;;;;;;6.87;4.15;;;;;;;21.96;60.31;153175.78;1711676;83;20997;-62
2022/06/08 03:40:44;;;;;;;11.57;4.72;;;;;;;22.06;60.57;153199.34;1711322;83;21150;-62
2022/06/08 03:43:11;;;;;;;11.03;5.00;;;;;;;22.12;60.60;153215.02;1711378;83;21092;-62
2022/06/08 03:45:41;;;;;;;9.48;4.37;;;;;;;22.18;61.06;153230.69;1711510;83;21482;-62
2022/06/08 03:48:08;;;;;;;5.47;3.30;;;;;;;22.36;60.87;153275.17;1711754;83;21092;-62
2022/06/08 03:50:35;;;;;;;6.67;3.00;;;;;;;22.49;60.54;153309.25;1711457;83;21085;-63
2022/06/08 03:53:06;;;;;;;6.67;3.55;;;;;;;22.57;60.98;153330.16;1711569;83;22088;-62
2022/06/08 03:55:34;;;;;;;3.92;2.92;;;;;;;22.68;61.46;153356.34;1711375;83;21021;-64
2022/06/08 03:58:01;;;;;;;5.17;2.95;;;;;;;22.85;62.07;153400.80;1711403;83;21009;-64
2022/06/08 04:00:31;;;;;;;4.15;2.80;;;;;;;23.04;62.09;153447.91;1711409;83;21104;-64
2022/06/08 04:03:03;;;;;;;4.45;2.80;;;;;;;23.15;61.80;153475.39;1711498;83;21272;-64
2022/06/08 04:05:31;;;;;;;5.30;3.27;;;;;;;23.14;63.05;153474.11;1711181;83;21220;-64
2022/06/08 04:09:07;;;;;;;4.67;2.40;;;;;;;23.23;65.94;153495.02;1711271;83;21418;-58
2022/06/08 04:11:35;;;;;;;6.37;2.60;;;;;;;23.30;67.55;153514.72;1711594;83;20997;-57
2022/06/08 04:14:03;;;;;;;6.00;2.95;;;;;;;23.51;67.88;153567.06;1711365;83;21065;-58
2022/06/08 04:16:32;;;;;;;7.15;3.33;;;;;;;23.66;67.84;153605.02;1711485;83;21470;-58
2022/06/08 04:19:02;;;;;;;5.72;3.17;;;;;;;23.89;67.66;153663.94;1711015;83;21893;-57
2022/06/08 04:21:31;;;;;;;6.17;3.77;;;;;;;23.99;67.98;153688.81;1712407;83;20981;-57
2022/06/08 04:24:04;;;;;;;6.60;3.85;;;;;;;24.05;68.06;153701.95;1713896;82;21116;-56
2022/06/08 04:26:29;;;;;;;6.10;3.55;;;;;;;24.16;67.76;153730.72;1714220;83;21078;-58
2022/06/08 04:29:01;;;;;;;6.33;3.50;;;;;;;24.21;67.83;153742.53;1713341;83;21064;-58
2022/06/08 04:31:32;;;;;;;7.58;3.83;;;;;;;24.16;68.22;153730.72;1714627;83;21218;-58
2022/06/08 04:34:00;;;;;;;5.08;4.10;;;;;;;24.16;69.06;153730.72;1714348;83;21446;-58
2022/06/08 04:36:29;;;;;;;6.70;4.30;;;;;;;24.19;69.73;153738.58;1714050;83;21128;-58
2022/06/08 04:38:57;;;;;;;10.05;4.10;;;;;;;24.28;69.43;153762.17;1714663;82;20953;-58
2022/06/08 04:41:24;;;;;;;6.30;4.53;;;;;;;24.40;68.30;153790.95;1714611;83;20989;-58
2022/06/08 04:43:53;;;;;;;5.50;3.67;;;;;;;24.43;66.98;153798.86;1714855;82;21259;-58
2022/06/08 04:46:21;;;;;;;4.85;4.00;;;;;;;24.46;66.22;153806.70;1714877;83;21045;-58
2022/06/08 04:48:50;;;;;;;7.40;3.87;;;;;;;24.45;65.76;153805.38;1714951;82;21441;-58
2022/06/08 04:51:19;;;;;;;5.85;4.37;;;;;;;24.45;65.58;153804.09;1714835;82;21081;-58
2022/06/08 04:53:47;;;;;;;6.97;4.22;;;;;;;24.47;65.13;153809.33;1714945;83;21001;-58
2022/06/08 04:56:14;;;;;;;10.05;4.70;;;;;;;24.43;63.99;153800.14;1714873;82;21250;-57
2022/06/08 04:58:42;;;;;;;5.80;4.05;;;;;;;24.50;62.83;153817.17;1714869;83;21072;-58
2022/06/08 05:01:10;;;;;;;6.15;4.10;;;;;;;24.59;61.30;153840.72;1714765;83;21024;-58
2022/06/08 05:03:37;;;;;;;4.90;3.60;;;;;;;24.72;60.25;153872.19;1714794;83;21061;-59
2022/06/08 05:06:06;;;;;;;12.23;4.20;;;;;;;24.79;58.78;153890.56;1714813;83;21008;-58
2022/06/08 05:08:36;;;;;;;6.40;3.67;;;;;;;24.81;58.66;153894.50;1714891;83;21144;-59
2022/06/08 05:11:05;;;;;;;6.45;3.80;;;;;;;24.82;58.60;153897.13;1714723;83;21011;-59
2022/06/08 05:13:34;;;;;;;6.92;4.00;;;;;;;24.88;58.03;153912.83;1714882;83;21005;-58
2022/06/08 05:16:04;;;;;;;6.72;3.95;;;;;;;24.92;57.45;153922.02;1714411;83;21021;-57
2022/06/08 05:18:32;;;;;;;5.53;4.05;;;;;;;24.85;57.71;153904.97;1715108;83;20961;-58
2022/06/08 05:21:01;;;;;;;5.78;3.75;;;;;;;24.90;57.74;153918.06;1718383;82;22013;-58
2022/06/08 05:23:33;;;;;;;6.60;3.40;;;;;;;24.98;57.88;153937.72;1682296;84;21053;-58
2022/06/08 05:26:02;;;;;;;6.58;3.47;;;;;;;25.10;57.42;153969.17;1682502;85;21060;-57
2022/06/08 05:28:30;;;;;;;4.53;3.30;;;;;;;25.24;56.95;154003.22;1679670;84;21477;-58
2022/06/08 05:30:59;;;;;;;9.18;3.95;;;;;;;25.29;56.83;154016.30;1667850;85;21570;-57
2022/06/08 05:33:27;;;;;;;5.97;3.85;;;;;;;25.31;57.10;154021.53;1678677;85;21257;-57
2022/06/08 05:35:56;;;;;;;7.35;3.20;;;;;;;25.35;56.08;154030.72;1685491;83;21000;-58
2022/06/08 05:38:23;;;;;;;6.47;3.58;;;;;;;25.30;56.57;154020.25;1684497;85;21037;-58
2022/06/08 05:40:50;;;;;;;7.37;3.50;;;;;;;25.35;56.81;154032.06;1676572;85;20958;-58
2022/06/08 05:43:18;;;;;;;5.03;3.40;;;;;;;25.32;56.49;154024.20;1670805;85;21049;-58
2022/06/08 05:45:48;;;;;;;7.67;3.70;;;;;;;25.30;56.92;154018.92;1671568;85;21884;-57
2022/06/08 05:48:17;;;;;;;8.25;3.45;;;;;;;25.28;57.12;154015.02;1673998;85;21017;-57
2022/06/08 05:50:47;;;;;;;8.60;3.62;;;;;;;25.28;57.52;154013.69;1667223;86;21117;-57
2022/06/08 05:53:15;;;;;;;5.85;3.75;;;;;;;25.35;56.94;154032.06;1654836;85;21542;-58
2022/06/08 05:55:43;;;;;;;6.37;3.60;;;;;;;25.28;56.64;154013.69;1679085;84;21096;-58
2022/06/08 05:58:10;;;;;;;4.65;3.10;;;;;;;25.31;56.26;154022.87;1650998;85;21260;-59
2022/06/08 06:00:39;;;;;;;6.25;3.60;;;;;;;25.36;55.78;154034.67;1673431;85;21090;-59
2022/06/08 06:03:08;;;;;;;5.33;3.62;;;;;;;25.39;55.51;154041.20;1680554;84;21127;-57
2022/06/08 06:05:36;;;;;;;7.83;3.85;;;;;;;25.37;55.69;154037.30;1683892;84;20992;-57
2022/06/08 06:08:07;;;;;;;7.20;3.47;;;;;;;25.44;55.74;154054.34;1682463;84;21072;-59
2022/06/08 06:10:39;;;;;;;7.62;3.80;;;;;;;25.46;54.94;154059.58;1656210;85;21477;-58
2022/06/08 06:13:06;;;;;;;4.95;3.17;;;;;;;25.36;54.53;154034.67;1629593;86;21604;-59
2022/06/08 06:15:42;;;;;;;8.33;3.25;;;;;;;25.33;54.61;154026.83;1655207;85;21098;-58
2022/06/08 06:18:10;;;;;;;4.80;3.35;;;;;;;25.40;53.45;154045.16;1694412;83;21023;-58
2022/06/08 06:20:40;;;;;;;8.23;3.17;;;;;;;25.50;52.82;154068.77;1688195;83;21046;-59
2022/06/08 06:23:15;;;;;;;5.10;3.42;;;;;;;25.57;52.78;154087.14;1693682;83;21156;-59
2022/06/08 06:25:53;;;;;;;6.12;3.27;;;;;;;25.60;52.49;154095.00;1556255;90;21712;-57
2022/06/08 06:28:31;;;;;;;3.80;2.77;;;;;;;25.66;51.37;154110.70;1640161;82;21052;-58
2022/06/08 06:31:57;;;;;;;5.55;3.35;;;;;;;25.73;50.17;154127.75;1711550;81;20994;-58
2022/06/08 06:34:26;;;;;;;7.17;3.00;;;;;;;25.74;50.11;154131.66;1709121;82;20942;-57
2022/06/08 06:36:54;;;;;;;5.17;3.02;;;;;;;25.82;49.72;154150.03;1720301;82;21526;-59
2022/06/08 06:39:23;;;;;;;6.35;3.42;;;;;;;25.85;49.47;154157.91;1727683;82;20924;-59
2022/06/08 06:41:52;;;;;;;8.78;2.92;;;;;;;25.89;48.68;154168.37;1726911;82;21041;-58
2022/06/08 06:44:21;;;;;;;4.83;2.77;;;;;;;25.91;48.45;154172.33;1710726;82;20961;-59
2022/06/08 06:47:00;;;;;;;3.52;2.60;;;;;;;25.90;48.46;154171.00;1721706;82;21056;-58
2022/06/08 06:49:35;;;;;;;4.20;2.70;;;;;;;25.89;48.57;154168.37;1712219;83;21134;-59
2022/06/08 06:52:04;;;;;;;7.62;2.72;;;;;;;25.97;48.81;154189.33;1712030;83;21018;-59
2022/06/08 06:54:32;;;;;;;4.53;3.00;;;;;;;26.07;47.91;154212.95;1685314;81;21100;-57
2022/06/08 06:57:00;;;;;;;6.65;3.05;;;;;;;26.18;47.88;154241.81;1724296;82;21058;-58
2022/06/08 06:59:28;;;;;;;5.25;3.08;;;;;;;26.29;47.60;154269.34;1696256;83;21032;-58
2022/06/08 07:01:56;;;;;;;5.37;2.90;;;;;;;26.37;47.39;154289.02;1693128;83;21234;-58
2022/06/08 07:04:25;;;;;;;6.58;2.83;;;;;;;26.49;47.63;154320.50;1747077;82;20946;-59
2022/06/08 07:06:53;;;;;;;5.35;3.00;;;;;;;26.66;47.29;154362.47;1714970;83;21017;-59
2022/06/08 07:09:22;;;;;;;5.67;3.00;;;;;;;26.71;47.45;154375.56;1735467;82;21022;-59
2022/06/08 07:11:50;;;;;;;8.25;2.87;;;;;;;26.66;47.84;154362.47;1712384;82;21055;-59
2022/06/08 07:14:22;;;;;;;6.65;2.90;;;;;;;26.62;47.67;154351.94;1725154;82;23001;-59
2022/06/08 07:16:52;;;;;;;8.23;3.80;;;;;;;26.51;47.58;154325.73;1714188;82;21454;-58
2022/06/08 07:19:21;;;;;;;7.17;3.00;;;;;;;26.42;47.15;154302.16;1719956;82;21037;-58
2022/06/08 07:21:48;;;;;;;4.78;3.10;;;;;;;26.39;47.61;154294.25;1709713;82;21156;-57
2022/06/08 07:24:25;;;;;;;5.42;3.20;;;;;;;26.40;47.45;154296.88;1714399;82;20980;-58
2022/06/08 07:26:52;;;;;;;4.87;2.90;;;;;;;26.41;47.57;154300.83;1699869;82;21119;-58
2022/06/08 07:29:19;;;;;;;6.40;2.90;;;;;;;26.44;48.40;154307.41;1675195;85;21087;-58
2022/06/08 07:31:46;;;;;;;5.33;3.15;;;;;;;26.43;49.05;154306.06;1667873;86;21029;-58
2022/06/08 07:34:14;;;;;;;4.20;3.00;;;;;;;26.42;49.21;154303.44;1661754;84;21082;-57
2022/06/08 07:36:44;;;;;;;5.55;2.98;;;;;;;26.49;49.34;154320.50;1681509;83;21446;-58
2022/06/08 07:39:13;;;;;;;4.08;2.67;;;;;;;26.60;49.04;154349.31;1734297;82;21254;-57
2022/06/08 07:41:42;;;;;;;5.50;3.10;;;;;;;26.66;47.91;154362.47;1730659;82;21057;-59
2022/06/08 07:44:10;;;;;;;6.05;2.90;;;;;;;26.58;48.01;154342.78;1720295;82;21080;-58
2022/06/08 07:46:38;;;;;;;3.92;2.90;;;;;;;26.56;48.29;154338.84;1686501;83;21737;-57
2022/06/08 07:51:55;;;;;;;3.42;2.70;;;;;;;26.61;47.79;154350.66;1710821;82;22010;-57
2022/06/08 07:54:27;;;;;;;8.05;2.92;;;;;;;26.64;47.77;154358.52;1700566;84;21441;-57
2022/06/08 07:56:54;;;;;;;3.75;2.83;;;;;;;26.64;48.26;154357.19;1668984;85;21530;-57
2022/06/08 07:59:23;;;;;;;5.72;2.80;;;;;;;26.60;48.26;154349.31;1715334;82;21108;-57
2022/06/08 08:01:52;;;;;;;5.12;2.33;;;;;;;26.60;48.71;154349.31;1702108;82;21064;-58
2022/06/08 08:04:19;;;;;;;5.10;2.77;;;;;;;26.62;48.75;154351.94;1711904;82;21216;-58
2022/06/08 08:06:46;;;;;;;6.70;3.08;;;;;;;26.59;48.59;154346.70;1715008;82;21104;-57
2022/06/08 08:09:20;;;;;;;7.03;2.80;;;;;;;26.54;49.19;154332.31;1715205;82;21029;-58
2022/06/08 08:11:51;;;;;;;6.90;3.05;;;;;;;26.56;49.44;154337.55;1711702;81;26430;-58
2022/06/08 08:14:19;;;;;;;5.37;2.77;;;;;;;26.64;49.26;154358.52;1710036;83;21052;-58
2022/06/08 08:16:47;;;;;;;6.67;2.67;;;;;;;26.65;49.22;154359.84;1708949;83;21247;-57
2022/06/08 08:19:17;;;;;;;5.25;2.45;;;;;;;26.67;49.13;154366.38;1710319;82;20990;-58
2022/06/08 08:21:45;;;;;;;4.50;2.80;;;;;;;26.64;49.35;154357.19;1714089;82;20990;-57
2022/06/08 08:24:12;;;;;;;4.45;2.67;;;;;;;26.59;49.58;154346.70;1692601;83;20993;-57
2022/06/08 08:26:39;;;;;;;3.47;2.55;;;;;;;26.62;50.34;154351.94;1671213;83;21121;-58
2022/06/08 08:29:06;;;;;;;3.85;2.70;;;;;;;26.61;50.23;154350.66;1716083;82;21519;-58
2022/06/08 08:31:33;;;;;;;4.17;2.33;;;;;;;26.54;49.71;154333.59;1690902;82;21044;-58
2022/06/08 08:34:00;;;;;;;5.80;2.83;;;;;;;26.54;49.09;154332.31;1685486;83;21113;-58
2022/06/08 08:36:27;;;;;;;3.65;2.50;;;;;;;26.57;48.84;154340.17;1685215;83;20994;-58
2022/06/08 08:38:55;;;;;;;4.08;2.70;;;;;;;26.59;48.27;154346.70;1695231;81;21116;-58
2022/06/08 08:44:20;;;;;;;4.72;3.30;;;;;;;26.58;47.91;154344.08;1685040;83;21112;-58
2022/06/08 08:47:38;;;;;;;5.17;3.33;;;;;;;26.57;47.43;154341.45;1650884;85;21590;-58
2022/06/08 08:50:20;;;;;;;6.00;3.95;;;;;;;26.58;47.15;154344.08;1626201;87;21056;-59
2022/06/08 08:53:03;;;;;;;5.80;4.17;;;;;;;26.60;47.00;154349.31;1636896;85;21075;-59
2022/06/08 08:55:46;;;;;;;6.60;4.10;;;;;;;26.56;46.85;154338.84;1644480;85;21433;-57
2022/06/08 08:58:23;;;;;;;6.33;3.92;;;;;;;26.60;46.91;154348.03;1644333;85;21093;-58
2022/06/08 09:00:56;;;;;;;5.28;3.90;;;;;;;26.66;46.54;154362.47;1648692;85;21049;-58
2022/06/08 09:03:44;;;;;;;9.45;3.72;;;;;;;26.75;47.00;154386.05;1650138;87;21055;-58
2022/06/08 09:06:19;;;;;;;7.83;4.53;;;;;;;26.84;47.07;154408.34;1634892;85;21507;-57
2022/06/08 09:08:50;;;;;;;9.48;3.75;;;;;;;26.88;46.41;154420.22;1659022;85;21138;-57
2022/06/08 09:11:25;;;;;;;9.08;3.90;;;;;;;26.91;46.68;154425.45;1663301;85;21452;-58
2022/06/08 09:13:59;;;;;;;9.63;4.58;;;;;;;26.83;46.53;154407.02;1678462;84;21095;-58
2022/06/08 09:16:40;;;;;;;9.05;4.50;;;;;;;26.76;46.04;154388.67;1673909;84;21020;-58
2022/06/08 09:19:33;;;;;;;7.45;4.15;;;;;;;26.77;46.37;154391.28;1679915;84;21111;-57
2022/06/08 09:22:08;;;;;;;10.13;6.22;;;;;;;26.77;45.21;154390.00;1640142;85;21270;-58
2022/06/08 09:24:48;;;;;;;9.03;6.33;;;;;;;26.66;44.79;154362.47;1675572;85;21005;-58
2022/06/08 09:27:26;;;;;;;9.18;7.08;;;;;;;26.63;44.08;154354.56;1666312;84;21067;-58
2022/06/08 09:30:15;;;;;;;11.78;7.55;;;;;;;26.64;44.11;154357.19;1675019;84;20957;-58
2022/06/08 09:32:49;;;;;;;11.35;6.65;;;;;;;26.63;43.37;154355.89;1692235;84;21086;-57
2022/06/08 09:35:30;;;;;;;9.73;5.83;;;;;;;26.66;43.95;154362.47;1683150;84;21814;-58
2022/06/08 09:38:14;;;;;;;9.00;5.50;;;;;;;26.63;43.73;154354.56;1694874;84;21014;-58
2022/06/08 09:40:58;;;;;;;10.45;4.75;;;;;;;26.54;44.20;154333.59;1687027;84;20994;-58
2022/06/08 09:43:50;;;;;;;7.67;4.67;;;;;;;26.55;43.25;154334.94;1691468;83;21012;-57
2022/06/08 09:51:25;;;;;;;8.85;4.10;;;;;;;26.58;42.88;154342.78;1706727;83;21538;-58
2022/06/08 09:52:11;;;;;;;7.37;3.92;;;;;;;26.51;42.68;154325.73;1701039;82;21049;-58
2022/06/08 09:55:14;;;;;;;6.80;4.58;;;;;;;26.50;41.15;154323.12;1673907;85;21037;-58
2022/06/08 09:57:56;;;;;;;10.98;4.25;;;;;;;26.53;40.94;154330.98;1595119;87;21065;-58
2022/06/08 10:00:50;;;;;;;9.78;5.65;;;;;;;26.53;40.91;154330.98;1682524;83;21054;-59
2022/06/08 10:03:40;;;;;;;10.35;6.03;;;;;;;26.55;41.11;154336.22;1702651;83;22077;-57
2022/06/08 10:06:40;;;;;;;8.48;4.70;;;;;;;26.64;40.68;154357.19;1697558;83;21084;-57
2022/06/08 10:09:36;;;;;;;7.62;4.80;;;;;;;26.70;41.14;154374.23;1712880;83;21558;-58
2022/06/08 10:12:12;;;;;;;6.30;3.58;;;;;;;26.73;39.48;154380.81;1720833;83;21120;-59
2022/06/08 10:15:04;;;;;;;5.03;3.37;;;;;;;26.79;39.36;154396.53;1712575;83;20985;-58
2022/06/08 10:17:41;;;;;;;7.60;3.12;;;;;;;26.86;38.96;154414.97;1718490;83;21400;-58
2022/06/08 10:20:36;;;;;;;6.12;2.42;;;;;;;26.94;37.85;154433.31;1720714;83;21454;-58
2022/06/08 10:23:30;;;;;;;3.05;2.17;;;;;;;26.96;37.43;154439.84;1710316;83;21396;-58
2022/06/08 10:26:11;;;;;;;4.53;2.10;;;;;;;27.02;37.13;154454.28;1706584;83;21112;-57
2022/06/08 10:29:00;;;;;;;7.17;2.40;;;;;;;27.10;36.53;154475.30;1687449;83;21069;-58
2022/06/08 10:31:36;;;;;;;5.55;2.40;;;;;;;27.17;36.35;154492.31;1699341;83;22641;-59
2022/06/08 10:34:17;;;;;;;4.33;2.02;;;;;;;27.22;36.79;154504.13;1683879;84;21614;-59
2022/06/08 10:36:54;;;;;;;4.58;2.25;;;;;;;27.27;36.07;154517.23;1655198;85;21089;-58
2022/06/08 10:39:22;;;;;;;4.20;2.17;;;;;;;27.34;36.35;154534.30;1700212;83;21061;-58
2022/06/08 10:45:28;;;;;;;3.95;1.82;;;;;;;27.56;36.29;154592.06;1668200;85;21106;-59
2022/06/08 10:48:15;;;;;;;2.98;2.35;;;;;;;27.70;35.35;154627.47;1682005;84;21385;-58
2022/06/08 10:50:48;;;;;;;2.67;1.45;;;;;;;27.79;35.45;154648.50;1668998;85;21037;-59
2022/06/08 10:56:32;;;;;;;3.45;2.50;;;;;;;27.91;35.49;154679.97;1646322;84;21063;-59
2022/06/08 10:59:10;;;;;;;3.27;1.80;;;;;;;27.86;35.40;154666.84;1674710;84;21616;-59
2022/06/08 11:01:55;;;;;;;2.65;2.00;;;;;;;27.66;35.26;154616.98;1670494;85;21110;-58
2022/06/08 11:04:33;;;;;;;5.70;1.52;;;;;;;27.56;35.37;154590.78;1666843;85;21032;-58
2022/06/08 11:07:13;;;;;;;1.82;1.50;;;;;;;27.52;35.23;154580.23;1663839;84;21063;-58
2022/06/08 11:09:59;;;;;;;3.33;1.95;;;;;;;27.52;34.92;154580.23;1665654;85;21016;-58
2022/06/08 11:12:39;;;;;;;4.12;1.87;;;;;;;27.44;34.72;154560.55;1676948;84;21240;-58
2022/06/08 11:15:17;;;;;;;5.67;2.00;;;;;;;27.41;35.21;154553.97;1664595;84;21087;-59
2022/06/08 11:17:52;;;;;;;3.40;2.00;;;;;;;27.55;35.17;154588.16;1644174;86;21081;-58
2022/06/08 11:20:38;;;;;;;6.92;2.00;;;;;;;27.67;35.10;154619.61;1668625;84;21103;-58
2022/06/08 11:23:27;;;;;;;2.37;1.70;;;;;;;27.77;34.67;154644.55;1628478;86;21562;-58
2022/06/08 11:26:14;;;;;;;3.08;2.25;;;;;;;27.76;34.66;154640.63;1662940;84;22003;-59
2022/06/08 11:28:44;;;;;;;3.08;1.82;;;;;;;27.74;34.93;154638.02;1642185;85;21095;-60
2022/06/08 11:31:32;;;;;;;2.45;1.90;;;;;;;27.77;34.96;154643.25;1660118;84;20942;-59
2022/06/08 11:34:22;;;;;;;4.35;2.10;;;;;;;27.68;34.89;154622.23;1672413;84;22278;-59
2022/06/08 11:37:14;;;;;;;4.10;2.37;;;;;;;27.61;35.12;154603.88;1659712;84;21553;-58
2022/06/08 11:40:04;;;;;;;2.27;1.60;;;;;;;27.71;35.16;154628.81;1660422;84;21513;-59
2022/06/08 11:42:50;;;;;;;4.15;1.50;;;;;;;27.81;34.89;154653.75;1660660;84;21004;-59
2022/06/08 11:45:28;;;;;;;7.45;1.90;;;;;;;27.93;34.74;154683.92;1672250;85;21048;-59
2022/06/08 11:48:13;;;;;;;2.87;1.67;;;;;;;28.10;34.74;154728.53;1663296;85;21468;-58
2022/06/08 11:50:54;;;;;;;2.45;1.35;;;;;;;28.27;34.45;154771.89;1672058;84;21062;-58
2022/06/08 11:53:39;;;;;;;2.35;1.52;;;;;;;28.33;33.82;154785.00;1684713;83;21482;-59
2022/06/08 11:56:29;;;;;;;2.95;1.60;;;;;;;28.33;33.84;154786.34;1637248;87;21150;-59
2022/06/08 11:59:01;;;;;;;4.90;1.50;;;;;;;28.39;33.66;154800.73;1647336;84;21096;-57
2022/06/08 12:01:42;;;;;;;2.92;1.40;;;;;;;28.47;33.68;154820.44;1650306;85;21065;-59
2022/06/08 12:04:22;;;;;;;2.58;1.42;;;;;;;28.55;33.54;154842.75;1664618;85;21496;-58
2022/06/08 12:06:50;;;;;;;1.50;1.40;;;;;;;28.58;33.51;154850.61;1653990;86;21801;-57
2022/06/08 12:09:26;;;;;;;1.98;1.62;;;;;;;28.64;33.30;154865.06;1670401;85;21063;-58
2022/06/08 12:11:56;;;;;;;2.95;1.30;;;;;;;28.63;33.08;154862.44;1669723;83;21129;-58
2022/06/08 12:14:38;;;;;;;1.87;1.40;;;;;;;28.49;33.22;154827.00;1623568;86;21103;-58
2022/06/08 12:17:18;;;;;;;3.62;1.45;;;;;;;28.39;33.33;154800.73;1671006;84;21512;-58
2022/06/08 12:19:55;;;;;;;1.45;1.17;;;;;;;28.30;33.57;154779.75;1677234;84;21520;-60